sensor_id;sensor_type;location;lat;lon;timestamp;noise_LAeq;noise_LA_min;noise_LA_max;noise_LA01;noise_LA95
67320;Laerm;57665;51.436;5.978;2024-03-25T00:00:04;38.95;37.99;39.89;;
67320;Laerm;57665;51.436;5.978;2024-03-25T00:00:20;39.37;37.65;45.69;;
67320;Laerm;57665;51.436;5.978;2024-03-25T00:00:32;38.94;37.85;40.65;;
67320;Laerm;57665;51.436;5.978;2024-03-25T00:00:44;38.47;37.45;39.60;;
67320;Laerm;57665;51.436;5.978;2024-03-25T00:00:54;38.62;37.58;40.55;;
67320;Laerm;57665;51.436;5.978;2024-03-25T00:01:04;38.39;37.24;39.38;;
67320;Laerm;57665;51.436;5.978;2024-03-25T00:01:14;38.53;37.46;39.84;;
67320;Laerm;57665;51.436;5.978;2024-03-25T00:01:24;38.69;37.74;39.89;;
67320;Laerm;57665;51.436;5.978;2024-03-25T00:01:35;38.75;37.46;39.80;;
67320;Laerm;57665;51.436;5.978;2024-03-25T00:01:45;38.75;37.76;39.84;;
67320;Laerm;57665;51.436;5.978;2024-03-25T00:01:55;38.70;37.63;39.58;;
67320;Laerm;57665;51.436;5.978;2024-03-25T00:02:05;38.87;37.80;41.08;;
67320;Laerm;57665;51.436;5.978;2024-03-25T00:02:16;39.07;37.95;40.27;;
67320;Laerm;57665;51.436;5.978;2024-03-25T00:02:26;38.99;37.86;40.28;;
67320;Laerm;57665;51.436;5.978;2024-03-25T00:02:37;39.15;38.10;40.04;;
67320;Laerm;57665;51.436;5.978;2024-03-25T00:02:47;39.08;38.04;40.12;;
67320;Laerm;57665;51.436;5.978;2024-03-25T00:02:57;38.95;38.04;39.93;;
67320;Laerm;57665;51.436;5.978;2024-03-25T00:03:08;39.17;38.06;40.35;;
67320;Laerm;57665;51.436;5.978;2024-03-25T00:03:18;39.16;37.73;40.47;;
67320;Laerm;57665;51.436;5.978;2024-03-25T00:03:29;39.19;37.99;43.00;;
67320;Laerm;57665;51.436;5.978;2024-03-25T00:03:39;38.95;37.83;40.28;;
67320;Laerm;57665;51.436;5.978;2024-03-25T00:03:49;39.13;38.19;41.09;;
67320;Laerm;57665;51.436;5.978;2024-03-25T00:03:59;38.93;37.91;39.96;;
67320;Laerm;57665;51.436;5.978;2024-03-25T00:04:10;38.79;37.81;40.18;;
67320;Laerm;57665;51.436;5.978;2024-03-25T00:04:20;38.88;37.59;40.42;;
67320;Laerm;57665;51.436;5.978;2024-03-25T00:04:32;38.94;38.04;40.00;;
67320;Laerm;57665;51.436;5.978;2024-03-25T00:04:43;38.67;37.71;40.21;;
67320;Laerm;57665;51.436;5.978;2024-03-25T00:04:53;38.52;37.39;39.42;;
67320;Laerm;57665;51.436;5.978;2024-03-25T00:05:03;38.73;37.64;39.77;;
67320;Laerm;57665;51.436;5.978;2024-03-25T00:05:15;38.69;37.61;43.03;;
67320;Laerm;57665;51.436;5.978;2024-03-25T00:05:28;38.82;37.40;39.98;;
67320;Laerm;57665;51.436;5.978;2024-03-25T00:05:38;39.17;38.17;40.43;;
67320;Laerm;57665;51.436;5.978;2024-03-25T00:05:48;38.99;37.97;40.12;;
67320;Laerm;57665;51.436;5.978;2024-03-25T00:05:59;39.33;38.36;40.58;;
67320;Laerm;57665;51.436;5.978;2024-03-25T00:06:09;39.10;38.04;40.17;;
67320;Laerm;57665;51.436;5.978;2024-03-25T00:06:19;38.95;37.67;39.96;;
67320;Laerm;57665;51.436;5.978;2024-03-25T00:06:29;38.98;37.92;39.88;;
67320;Laerm;57665;51.436;5.978;2024-03-25T00:06:43;38.85;37.78;39.93;;
67320;Laerm;57665;51.436;5.978;2024-03-25T00:06:53;38.85;37.76;39.75;;
67320;Laerm;57665;51.436;5.978;2024-03-25T00:07:03;38.80;37.88;39.85;;
67320;Laerm;57665;51.436;5.978;2024-03-25T00:07:14;38.66;37.66;39.71;;
67320;Laerm;57665;51.436;5.978;2024-03-25T00:07:24;38.84;37.65;39.78;;
67320;Laerm;57665;51.436;5.978;2024-03-25T00:07:34;38.81;37.78;40.00;;
67320;Laerm;57665;51.436;5.978;2024-03-25T00:07:44;39.11;38.07;40.34;;
67320;Laerm;57665;51.436;5.978;2024-03-25T00:07:55;39.00;37.94;40.07;;
67320;Laerm;57665;51.436;5.978;2024-03-25T00:08:05;38.67;37.74;39.74;;
67320;Laerm;57665;51.436;5.978;2024-03-25T00:08:15;38.84;37.96;39.97;;
67320;Laerm;57665;51.436;5.978;2024-03-25T00:08:25;38.78;37.67;40.41;;
67320;Laerm;57665;51.436;5.978;2024-03-25T00:08:36;38.92;37.99;39.91;;
67320;Laerm;57665;51.436;5.978;2024-03-25T00:08:46;38.70;37.60;39.67;;
67320;Laerm;57665;51.436;5.978;2024-03-25T00:08:57;38.89;37.88;39.90;;
67320;Laerm;57665;51.436;5.978;2024-03-25T00:09:07;38.94;37.75;39.85;;
67320;Laerm;57665;51.436;5.978;2024-03-25T00:09:23;39.15;38.03;41.20;;
67320;Laerm;57665;51.436;5.978;2024-03-25T00:09:34;39.25;38.04;40.17;;
67320;Laerm;57665;51.436;5.978;2024-03-25T00:09:45;38.91;37.79;39.95;;
67320;Laerm;57665;51.436;5.978;2024-03-25T00:09:55;39.03;38.03;39.95;;
67320;Laerm;57665;51.436;5.978;2024-03-25T00:10:05;39.09;37.99;40.48;;
67320;Laerm;57665;51.436;5.978;2024-03-25T00:10:18;39.00;37.70;39.87;;
67320;Laerm;57665;51.436;5.978;2024-03-25T00:10:30;38.98;37.83;40.01;;
67320;Laerm;57665;51.436;5.978;2024-03-25T00:10:40;39.05;37.67;40.33;;
67320;Laerm;57665;51.436;5.978;2024-03-25T00:10:51;38.95;37.99;40.22;;
67320;Laerm;57665;51.436;5.978;2024-03-25T00:11:01;39.09;38.13;40.60;;
67320;Laerm;57665;51.436;5.978;2024-03-25T00:11:29;38.85;37.18;40.49;;
67320;Laerm;57665;51.436;5.978;2024-03-25T00:11:43;38.72;37.51;39.76;;
67320;Laerm;57665;51.436;5.978;2024-03-25T00:11:53;38.83;37.34;40.65;;
67320;Laerm;57665;51.436;5.978;2024-03-25T00:12:04;38.77;37.64;39.82;;
67320;Laerm;57665;51.436;5.978;2024-03-25T00:12:14;38.88;37.89;39.84;;
67320;Laerm;57665;51.436;5.978;2024-03-25T00:12:25;39.14;37.95;40.74;;
67320;Laerm;57665;51.436;5.978;2024-03-25T00:12:35;39.06;37.99;40.22;;
67320;Laerm;57665;51.436;5.978;2024-03-25T00:12:46;38.80;37.85;39.73;;
67320;Laerm;57665;51.436;5.978;2024-03-25T00:12:56;39.02;37.76;40.21;;
67320;Laerm;57665;51.436;5.978;2024-03-25T00:13:07;38.99;37.77;41.40;;
67320;Laerm;57665;51.436;5.978;2024-03-25T00:13:17;38.84;37.51;39.94;;
67320;Laerm;57665;51.436;5.978;2024-03-25T00:13:27;38.94;37.96;39.94;;
67320;Laerm;57665;51.436;5.978;2024-03-25T00:13:37;39.07;37.96;40.18;;
67320;Laerm;57665;51.436;5.978;2024-03-25T00:13:47;39.14;37.64;49.72;;
67320;Laerm;57665;51.436;5.978;2024-03-25T00:13:58;38.85;37.72;40.29;;
67320;Laerm;57665;51.436;5.978;2024-03-25T00:14:08;38.98;37.52;40.01;;
67320;Laerm;57665;51.436;5.978;2024-03-25T00:14:18;38.94;37.80;39.89;;
67320;Laerm;57665;51.436;5.978;2024-03-25T00:14:29;40.47;37.92;45.42;;
67320;Laerm;57665;51.436;5.978;2024-03-25T00:14:40;38.97;37.94;39.99;;
67320;Laerm;57665;51.436;5.978;2024-03-25T00:14:50;38.87;37.78;39.81;;
67320;Laerm;57665;51.436;5.978;2024-03-25T00:15:01;38.68;37.81;39.85;;
67320;Laerm;57665;51.436;5.978;2024-03-25T00:15:11;40.05;38.10;44.07;;
67320;Laerm;57665;51.436;5.978;2024-03-25T00:15:21;40.10;37.78;47.21;;
67320;Laerm;57665;51.436;5.978;2024-03-25T00:15:33;38.72;37.58;39.66;;
67320;Laerm;57665;51.436;5.978;2024-03-25T00:15:44;38.69;37.46;39.99;;
67320;Laerm;57665;51.436;5.978;2024-03-25T00:15:54;38.60;37.81;39.55;;
67320;Laerm;57665;51.436;5.978;2024-03-25T00:16:04;38.77;37.83;40.33;;
67320;Laerm;57665;51.436;5.978;2024-03-25T00:16:16;38.84;37.87;39.67;;
67320;Laerm;57665;51.436;5.978;2024-03-25T00:16:26;39.06;37.90;40.21;;
67320;Laerm;57665;51.436;5.978;2024-03-25T00:16:37;39.14;37.97;40.14;;
67320;Laerm;57665;51.436;5.978;2024-03-25T00:16:47;39.05;38.07;40.04;;
67320;Laerm;57665;51.436;5.978;2024-03-25T00:16:57;39.02;38.19;40.01;;
67320;Laerm;57665;51.436;5.978;2024-03-25T00:17:08;38.87;37.65;40.10;;
67320;Laerm;57665;51.436;5.978;2024-03-25T00:17:21;39.14;38.22;40.10;;
67320;Laerm;57665;51.436;5.978;2024-03-25T00:17:31;38.79;37.74;40.09;;
67320;Laerm;57665;51.436;5.978;2024-03-25T00:17:42;38.65;37.47;39.67;;
67320;Laerm;57665;51.436;5.978;2024-03-25T00:17:52;38.90;37.78;40.55;;
67320;Laerm;57665;51.436;5.978;2024-03-25T00:18:02;38.91;37.63;48.11;;
67320;Laerm;57665;51.436;5.978;2024-03-25T00:18:13;39.18;37.54;40.33;;
67320;Laerm;57665;51.436;5.978;2024-03-25T00:18:23;39.08;37.87;40.24;;
67320;Laerm;57665;51.436;5.978;2024-03-25T00:18:33;39.19;38.03;40.53;;
67320;Laerm;57665;51.436;5.978;2024-03-25T00:18:43;38.91;37.67;40.03;;
67320;Laerm;57665;51.436;5.978;2024-03-25T00:18:53;38.77;37.78;39.96;;
67320;Laerm;57665;51.436;5.978;2024-03-25T00:19:04;39.09;38.18;40.37;;
67320;Laerm;57665;51.436;5.978;2024-03-25T00:19:14;38.84;37.52;39.96;;
67320;Laerm;57665;51.436;5.978;2024-03-25T00:19:27;38.70;37.35;39.86;;
67320;Laerm;57665;51.436;5.978;2024-03-25T00:19:37;38.53;37.51;39.48;;
67320;Laerm;57665;51.436;5.978;2024-03-25T00:19:47;38.63;37.55;39.98;;
67320;Laerm;57665;51.436;5.978;2024-03-25T00:20:04;38.60;37.62;39.74;;
67320;Laerm;57665;51.436;5.978;2024-03-25T00:20:16;39.08;37.93;40.22;;
67320;Laerm;57665;51.436;5.978;2024-03-25T00:20:26;39.18;37.93;40.02;;
67320;Laerm;57665;51.436;5.978;2024-03-25T00:20:36;39.24;37.78;40.10;;
67320;Laerm;57665;51.436;5.978;2024-03-25T00:20:46;39.01;37.88;40.12;;
67320;Laerm;57665;51.436;5.978;2024-03-25T00:20:57;39.03;37.93;40.08;;
67320;Laerm;57665;51.436;5.978;2024-03-25T00:21:07;38.72;37.59;39.96;;
67320;Laerm;57665;51.436;5.978;2024-03-25T00:21:17;39.18;37.96;40.59;;
67320;Laerm;57665;51.436;5.978;2024-03-25T00:21:27;38.68;37.74;39.97;;
67320;Laerm;57665;51.436;5.978;2024-03-25T00:21:38;38.84;37.51;39.73;;
67320;Laerm;57665;51.436;5.978;2024-03-25T00:21:55;38.71;37.64;39.58;;
67320;Laerm;57665;51.436;5.978;2024-03-25T00:22:05;38.77;37.17;39.92;;
67320;Laerm;57665;51.436;5.978;2024-03-25T00:22:15;38.76;37.70;39.95;;
67320;Laerm;57665;51.436;5.978;2024-03-25T00:22:25;38.78;37.65;39.72;;
67320;Laerm;57665;51.436;5.978;2024-03-25T00:22:36;38.88;37.71;39.90;;
67320;Laerm;57665;51.436;5.978;2024-03-25T00:22:47;38.83;37.61;40.06;;
67320;Laerm;57665;51.436;5.978;2024-03-25T00:22:57;39.02;38.08;40.11;;
67320;Laerm;57665;51.436;5.978;2024-03-25T00:23:07;38.65;37.56;39.93;;
67320;Laerm;57665;51.436;5.978;2024-03-25T00:23:17;38.86;37.57;40.00;;
67320;Laerm;57665;51.436;5.978;2024-03-25T00:23:28;38.77;37.81;39.83;;
67320;Laerm;57665;51.436;5.978;2024-03-25T00:23:38;38.82;37.71;39.95;;
67320;Laerm;57665;51.436;5.978;2024-03-25T00:23:48;38.59;37.57;39.63;;
67320;Laerm;57665;51.436;5.978;2024-03-25T00:24:01;38.85;37.62;39.91;;
67320;Laerm;57665;51.436;5.978;2024-03-25T00:24:11;39.02;37.95;40.08;;
67320;Laerm;57665;51.436;5.978;2024-03-25T00:24:22;38.84;37.87;39.82;;
67320;Laerm;57665;51.436;5.978;2024-03-25T00:24:32;38.58;37.22;39.68;;
67320;Laerm;57665;51.436;5.978;2024-03-25T00:24:42;38.70;37.61;39.81;;
67320;Laerm;57665;51.436;5.978;2024-03-25T00:24:52;39.05;37.89;40.07;;
67320;Laerm;57665;51.436;5.978;2024-03-25T00:25:02;38.89;37.66;40.25;;
67320;Laerm;57665;51.436;5.978;2024-03-25T00:25:13;38.99;37.89;40.10;;
67320;Laerm;57665;51.436;5.978;2024-03-25T00:25:23;38.68;37.82;39.69;;
67320;Laerm;57665;51.436;5.978;2024-03-25T00:25:37;38.63;37.59;39.97;;
67320;Laerm;57665;51.436;5.978;2024-03-25T00:25:47;38.76;37.73;40.56;;
67320;Laerm;57665;51.436;5.978;2024-03-25T00:25:57;38.94;37.71;40.08;;
67320;Laerm;57665;51.436;5.978;2024-03-25T00:26:07;38.54;37.36;39.47;;
67320;Laerm;57665;51.436;5.978;2024-03-25T00:26:17;38.74;37.61;39.82;;
67320;Laerm;57665;51.436;5.978;2024-03-25T00:26:28;38.77;37.75;40.02;;
67320;Laerm;57665;51.436;5.978;2024-03-25T00:26:38;38.78;37.39;40.79;;
67320;Laerm;57665;51.436;5.978;2024-03-25T00:26:48;38.67;37.65;39.66;;
67320;Laerm;57665;51.436;5.978;2024-03-25T00:26:58;38.64;37.72;39.60;;
67320;Laerm;57665;51.436;5.978;2024-03-25T00:27:08;38.85;37.77;39.95;;
67320;Laerm;57665;51.436;5.978;2024-03-25T00:27:19;38.87;37.71;39.90;;
67320;Laerm;57665;51.436;5.978;2024-03-25T00:27:29;38.60;37.25;39.77;;
67320;Laerm;57665;51.436;5.978;2024-03-25T00:27:45;38.72;37.66;40.03;;
67320;Laerm;57665;51.436;5.978;2024-03-25T00:27:55;38.55;37.40;39.60;;
67320;Laerm;57665;51.436;5.978;2024-03-25T00:28:07;38.63;37.36;39.79;;
67320;Laerm;57665;51.436;5.978;2024-03-25T00:28:17;38.80;37.74;40.16;;
67320;Laerm;57665;51.436;5.978;2024-03-25T00:28:29;38.61;37.53;39.72;;
67320;Laerm;57665;51.436;5.978;2024-03-25T00:28:39;38.61;37.57;39.71;;
67320;Laerm;57665;51.436;5.978;2024-03-25T00:28:49;38.83;37.85;39.77;;
67320;Laerm;57665;51.436;5.978;2024-03-25T00:28:59;39.09;38.00;40.40;;
67320;Laerm;57665;51.436;5.978;2024-03-25T00:29:09;38.87;37.58;39.89;;
67320;Laerm;57665;51.436;5.978;2024-03-25T00:29:20;38.76;37.72;39.87;;
67320;Laerm;57665;51.436;5.978;2024-03-25T00:29:30;38.77;37.48;40.24;;
67320;Laerm;57665;51.436;5.978;2024-03-25T00:29:40;39.03;37.93;40.26;;
67320;Laerm;57665;51.436;5.978;2024-03-25T00:29:51;38.85;37.90;39.80;;
67320;Laerm;57665;51.436;5.978;2024-03-25T00:30:01;38.43;37.37;39.37;;
67320;Laerm;57665;51.436;5.978;2024-03-25T00:30:11;38.42;37.46;39.45;;
67320;Laerm;57665;51.436;5.978;2024-03-25T00:30:22;38.79;37.48;39.92;;
67320;Laerm;57665;51.436;5.978;2024-03-25T00:30:32;38.93;37.81;40.01;;
67320;Laerm;57665;51.436;5.978;2024-03-25T00:30:42;38.88;37.74;39.97;;
67320;Laerm;57665;51.436;5.978;2024-03-25T00:30:52;38.60;37.56;39.43;;
67320;Laerm;57665;51.436;5.978;2024-03-25T00:31:03;38.57;37.31;39.67;;
67320;Laerm;57665;51.436;5.978;2024-03-25T00:31:13;39.03;37.82;43.59;;
67320;Laerm;57665;51.436;5.978;2024-03-25T00:31:23;38.71;37.41;39.66;;
67320;Laerm;57665;51.436;5.978;2024-03-25T00:31:37;38.80;37.92;40.19;;
67320;Laerm;57665;51.436;5.978;2024-03-25T00:31:50;38.70;37.46;39.81;;
67320;Laerm;57665;51.436;5.978;2024-03-25T00:32:00;38.30;37.46;39.28;;
67320;Laerm;57665;51.436;5.978;2024-03-25T00:32:10;38.46;37.55;40.13;;
67320;Laerm;57665;51.436;5.978;2024-03-25T00:32:21;38.55;37.57;39.59;;
67320;Laerm;57665;51.436;5.978;2024-03-25T00:32:31;38.51;37.29;39.44;;
67320;Laerm;57665;51.436;5.978;2024-03-25T00:32:41;38.35;37.14;39.47;;
67320;Laerm;57665;51.436;5.978;2024-03-25T00:32:57;38.51;37.32;39.71;;
67320;Laerm;57665;51.436;5.978;2024-03-25T00:33:08;38.19;36.94;39.08;;
67320;Laerm;57665;51.436;5.978;2024-03-25T00:33:18;38.45;37.40;39.47;;
67320;Laerm;57665;51.436;5.978;2024-03-25T00:33:28;38.37;37.42;39.45;;
67320;Laerm;57665;51.436;5.978;2024-03-25T00:33:38;38.45;37.37;39.51;;
67320;Laerm;57665;51.436;5.978;2024-03-25T00:33:48;38.45;37.55;39.34;;
67320;Laerm;57665;51.436;5.978;2024-03-25T00:33:59;38.48;37.27;39.56;;
67320;Laerm;57665;51.436;5.978;2024-03-25T00:34:12;38.53;37.36;39.84;;
67320;Laerm;57665;51.436;5.978;2024-03-25T00:34:22;38.58;37.70;39.41;;
67320;Laerm;57665;51.436;5.978;2024-03-25T00:34:33;38.45;37.42;39.47;;
67320;Laerm;57665;51.436;5.978;2024-03-25T00:34:43;38.04;37.14;39.17;;
67320;Laerm;57665;51.436;5.978;2024-03-25T00:34:53;37.96;36.73;39.15;;
67320;Laerm;57665;51.436;5.978;2024-03-25T00:35:03;38.07;36.73;38.87;;
67320;Laerm;57665;51.436;5.978;2024-03-25T00:35:14;37.98;36.84;39.14;;
67320;Laerm;57665;51.436;5.978;2024-03-25T00:35:27;38.11;36.87;38.87;;
67320;Laerm;57665;51.436;5.978;2024-03-25T00:35:37;38.11;36.98;39.04;;
67320;Laerm;57665;51.436;5.978;2024-03-25T00:35:48;38.45;37.44;39.39;;
67320;Laerm;57665;51.436;5.978;2024-03-25T00:35:59;38.19;37.20;39.75;;
67320;Laerm;57665;51.436;5.978;2024-03-25T00:36:10;38.00;36.98;38.99;;
67320;Laerm;57665;51.436;5.978;2024-03-25T00:36:20;38.24;37.08;39.52;;
67320;Laerm;57665;51.436;5.978;2024-03-25T00:36:30;38.03;37.02;39.65;;
67320;Laerm;57665;51.436;5.978;2024-03-25T00:36:40;38.43;37.08;40.17;;
67320;Laerm;57665;51.436;5.978;2024-03-25T00:36:51;38.26;37.08;39.31;;
67320;Laerm;57665;51.436;5.978;2024-03-25T00:37:01;38.10;37.12;39.49;;
67320;Laerm;57665;51.436;5.978;2024-03-25T00:37:11;38.19;37.16;39.25;;
67320;Laerm;57665;51.436;5.978;2024-03-25T00:37:21;38.20;37.15;39.21;;
67320;Laerm;57665;51.436;5.978;2024-03-25T00:37:32;38.26;37.00;39.46;;
67320;Laerm;57665;51.436;5.978;2024-03-25T00:37:42;38.40;37.28;39.56;;
67320;Laerm;57665;51.436;5.978;2024-03-25T00:37:52;38.27;37.33;39.18;;
67320;Laerm;57665;51.436;5.978;2024-03-25T00:38:02;38.32;37.36;39.40;;
67320;Laerm;57665;51.436;5.978;2024-03-25T00:38:17;38.23;37.15;39.39;;
67320;Laerm;57665;51.436;5.978;2024-03-25T00:38:27;38.09;36.92;39.42;;
67320;Laerm;57665;51.436;5.978;2024-03-25T00:38:38;37.94;36.96;39.15;;
67320;Laerm;57665;51.436;5.978;2024-03-25T00:38:48;37.86;36.75;39.67;;
67320;Laerm;57665;51.436;5.978;2024-03-25T00:38:59;37.93;36.90;39.17;;
67320;Laerm;57665;51.436;5.978;2024-03-25T00:39:09;37.88;37.00;38.81;;
67320;Laerm;57665;51.436;5.978;2024-03-25T00:39:20;37.69;36.62;38.90;;
67320;Laerm;57665;51.436;5.978;2024-03-25T00:39:32;37.91;37.02;39.03;;
67320;Laerm;57665;51.436;5.978;2024-03-25T00:39:42;38.01;36.83;38.97;;
67320;Laerm;57665;51.436;5.978;2024-03-25T00:39:52;38.01;36.94;39.11;;
67320;Laerm;57665;51.436;5.978;2024-03-25T00:40:03;37.81;36.87;38.86;;
67320;Laerm;57665;51.436;5.978;2024-03-25T00:40:14;37.96;36.78;39.70;;
67320;Laerm;57665;51.436;5.978;2024-03-25T00:40:24;38.05;36.99;39.06;;
67320;Laerm;57665;51.436;5.978;2024-03-25T00:40:35;37.79;36.58;38.71;;
67320;Laerm;57665;51.436;5.978;2024-03-25T00:40:45;37.74;36.46;38.87;;
67320;Laerm;57665;51.436;5.978;2024-03-25T00:40:55;37.68;36.70;38.76;;
67320;Laerm;57665;51.436;5.978;2024-03-25T00:41:08;37.69;36.63;38.77;;
67320;Laerm;57665;51.436;5.978;2024-03-25T00:41:18;37.95;36.85;38.85;;
67320;Laerm;57665;51.436;5.978;2024-03-25T00:41:28;37.75;36.69;39.01;;
67320;Laerm;57665;51.436;5.978;2024-03-25T00:41:39;37.81;36.80;39.14;;
67320;Laerm;57665;51.436;5.978;2024-03-25T00:41:49;37.82;36.60;38.94;;
67320;Laerm;57665;51.436;5.978;2024-03-25T00:41:59;37.80;36.73;38.85;;
67320;Laerm;57665;51.436;5.978;2024-03-25T00:42:09;37.85;36.68;38.82;;
67320;Laerm;57665;51.436;5.978;2024-03-25T00:42:20;37.75;36.69;39.97;;
67320;Laerm;57665;51.436;5.978;2024-03-25T00:42:30;37.83;36.77;38.78;;
67320;Laerm;57665;51.436;5.978;2024-03-25T00:42:40;37.93;36.91;39.11;;
67320;Laerm;57665;51.436;5.978;2024-03-25T00:42:50;37.83;36.61;39.46;;
67320;Laerm;57665;51.436;5.978;2024-03-25T00:43:00;37.79;36.47;38.79;;
67320;Laerm;57665;51.436;5.978;2024-03-25T00:43:11;37.88;36.74;38.80;;
67320;Laerm;57665;51.436;5.978;2024-03-25T00:43:22;37.91;36.92;38.83;;
67320;Laerm;57665;51.436;5.978;2024-03-25T00:43:32;37.83;36.97;38.89;;
67320;Laerm;57665;51.436;5.978;2024-03-25T00:43:42;37.95;36.91;39.11;;
67320;Laerm;57665;51.436;5.978;2024-03-25T00:43:53;38.58;37.07;53.31;;
67320;Laerm;57665;51.436;5.978;2024-03-25T00:44:03;38.00;36.64;39.16;;
67320;Laerm;57665;51.436;5.978;2024-03-25T00:44:14;37.90;36.53;38.87;;
67320;Laerm;57665;51.436;5.978;2024-03-25T00:44:24;37.90;37.03;38.93;;
67320;Laerm;57665;51.436;5.978;2024-03-25T00:44:34;38.00;37.18;39.15;;
67320;Laerm;57665;51.436;5.978;2024-03-25T00:44:44;37.92;37.05;38.80;;
67320;Laerm;57665;51.436;5.978;2024-03-25T00:44:55;37.83;36.63;39.08;;
67320;Laerm;57665;51.436;5.978;2024-03-25T00:45:05;38.01;36.66;38.94;;
67320;Laerm;57665;51.436;5.978;2024-03-25T00:45:15;38.01;36.98;38.92;;
67320;Laerm;57665;51.436;5.978;2024-03-25T00:45:26;38.05;36.77;39.06;;
67320;Laerm;57665;51.436;5.978;2024-03-25T00:45:40;38.13;36.90;39.10;;
67320;Laerm;57665;51.436;5.978;2024-03-25T00:45:51;38.06;36.89;39.78;;
67320;Laerm;57665;51.436;5.978;2024-03-25T00:46:01;37.94;36.97;39.07;;
67320;Laerm;57665;51.436;5.978;2024-03-25T00:46:12;38.02;36.72;39.10;;
67320;Laerm;57665;51.436;5.978;2024-03-25T00:46:22;37.97;36.92;39.02;;
67320;Laerm;57665;51.436;5.978;2024-03-25T00:46:32;38.02;36.78;39.07;;
67320;Laerm;57665;51.436;5.978;2024-03-25T00:46:42;37.90;36.51;38.96;;
67320;Laerm;57665;51.436;5.978;2024-03-25T00:46:53;37.98;37.08;39.09;;
67320;Laerm;57665;51.436;5.978;2024-03-25T00:47:03;38.00;37.04;38.99;;
67320;Laerm;57665;51.436;5.978;2024-03-25T00:47:13;37.99;36.83;38.95;;
67320;Laerm;57665;51.436;5.978;2024-03-25T00:47:24;38.03;36.99;39.18;;
67320;Laerm;57665;51.436;5.978;2024-03-25T00:47:34;38.00;36.87;38.99;;
67320;Laerm;57665;51.436;5.978;2024-03-25T00:47:44;37.89;37.03;38.75;;
67320;Laerm;57665;51.436;5.978;2024-03-25T00:47:54;37.88;36.84;38.90;;
67320;Laerm;57665;51.436;5.978;2024-03-25T00:48:05;37.87;36.62;39.16;;
67320;Laerm;57665;51.436;5.978;2024-03-25T00:48:15;37.97;37.00;38.89;;
67320;Laerm;57665;51.436;5.978;2024-03-25T00:48:25;38.04;37.02;39.06;;
67320;Laerm;57665;51.436;5.978;2024-03-25T00:48:35;37.91;36.98;38.98;;
67320;Laerm;57665;51.436;5.978;2024-03-25T00:48:48;38.05;36.86;39.14;;
67320;Laerm;57665;51.436;5.978;2024-03-25T00:48:58;38.11;36.69;39.18;;
67320;Laerm;57665;51.436;5.978;2024-03-25T00:49:09;38.10;37.06;39.16;;
67320;Laerm;57665;51.436;5.978;2024-03-25T00:49:19;37.87;36.74;39.04;;
67320;Laerm;57665;51.436;5.978;2024-03-25T00:49:31;37.94;36.94;38.93;;
67320;Laerm;57665;51.436;5.978;2024-03-25T00:49:41;38.09;37.05;39.01;;
67320;Laerm;57665;51.436;5.978;2024-03-25T00:49:52;38.13;36.88;39.06;;
67320;Laerm;57665;51.436;5.978;2024-03-25T00:50:03;38.01;36.87;39.01;;
67320;Laerm;57665;51.436;5.978;2024-03-25T00:50:13;38.17;37.03;39.05;;
67320;Laerm;57665;51.436;5.978;2024-03-25T00:50:27;38.15;37.14;39.77;;
67320;Laerm;57665;51.436;5.978;2024-03-25T00:50:38;38.03;36.95;39.16;;
67320;Laerm;57665;51.436;5.978;2024-03-25T00:50:48;37.96;36.94;39.00;;
67320;Laerm;57665;51.436;5.978;2024-03-25T00:50:58;38.01;36.71;38.95;;
67320;Laerm;57665;51.436;5.978;2024-03-25T00:51:09;38.26;37.18;39.18;;
67320;Laerm;57665;51.436;5.978;2024-03-25T00:51:19;38.05;36.73;39.55;;
67320;Laerm;57665;51.436;5.978;2024-03-25T00:51:29;38.26;37.08;39.25;;
67320;Laerm;57665;51.436;5.978;2024-03-25T00:51:39;38.64;37.41;40.03;;
67320;Laerm;57665;51.436;5.978;2024-03-25T00:51:49;38.72;37.40;40.08;;
67320;Laerm;57665;51.436;5.978;2024-03-25T00:52:00;40.30;37.08;46.95;;
67320;Laerm;57665;51.436;5.978;2024-03-25T00:52:10;40.93;37.21;47.93;;
67320;Laerm;57665;51.436;5.978;2024-03-25T00:52:20;37.92;36.87;38.71;;
67320;Laerm;57665;51.436;5.978;2024-03-25T00:52:33;37.89;36.74;38.85;;
67320;Laerm;57665;51.436;5.978;2024-03-25T00:52:43;37.94;36.66;39.04;;
67320;Laerm;57665;51.436;5.978;2024-03-25T00:52:53;38.05;37.16;39.65;;
67320;Laerm;57665;51.436;5.978;2024-03-25T00:53:03;38.02;36.89;39.15;;
67320;Laerm;57665;51.436;5.978;2024-03-25T00:53:14;37.79;36.57;38.86;;
67320;Laerm;57665;51.436;5.978;2024-03-25T00:53:24;38.16;36.95;39.24;;
67320;Laerm;57665;51.436;5.978;2024-03-25T00:53:34;40.23;37.55;45.35;;
67320;Laerm;57665;51.436;5.978;2024-03-25T00:53:44;38.67;37.20;40.52;;
67320;Laerm;57665;51.436;5.978;2024-03-25T00:53:55;38.06;37.00;39.06;;
67320;Laerm;57665;51.436;5.978;2024-03-25T00:54:05;38.09;37.04;39.03;;
67320;Laerm;57665;51.436;5.978;2024-03-25T00:54:15;37.97;37.03;38.87;;
67320;Laerm;57665;51.436;5.978;2024-03-25T00:54:25;38.00;36.93;38.95;;
67320;Laerm;57665;51.436;5.978;2024-03-25T00:54:35;38.01;36.77;39.41;;
67320;Laerm;57665;51.436;5.978;2024-03-25T00:54:48;38.09;37.14;39.04;;
67320;Laerm;57665;51.436;5.978;2024-03-25T00:54:59;38.02;36.98;38.95;;
67320;Laerm;57665;51.436;5.978;2024-03-25T00:55:09;37.96;36.93;39.14;;
67320;Laerm;57665;51.436;5.978;2024-03-25T00:55:19;38.06;37.08;39.27;;
67320;Laerm;57665;51.436;5.978;2024-03-25T00:55:30;38.53;37.52;39.72;;
67320;Laerm;57665;51.436;5.978;2024-03-25T00:55:41;38.36;37.20;39.40;;
67320;Laerm;57665;51.436;5.978;2024-03-25T00:55:54;38.06;37.04;39.16;;
67320;Laerm;57665;51.436;5.978;2024-03-25T00:56:04;38.21;37.25;39.28;;
67320;Laerm;57665;51.436;5.978;2024-03-25T00:56:14;38.30;36.85;39.57;;
67320;Laerm;57665;51.436;5.978;2024-03-25T00:56:24;38.24;37.06;39.31;;
67320;Laerm;57665;51.436;5.978;2024-03-25T00:56:35;38.08;36.98;39.52;;
67320;Laerm;57665;51.436;5.978;2024-03-25T00:56:45;38.16;37.04;39.38;;
67320;Laerm;57665;51.436;5.978;2024-03-25T00:56:56;38.20;37.16;39.45;;
67320;Laerm;57665;51.436;5.978;2024-03-25T00:57:06;38.13;37.18;39.20;;
67320;Laerm;57665;51.436;5.978;2024-03-25T00:57:17;38.14;36.87;39.10;;
67320;Laerm;57665;51.436;5.978;2024-03-25T00:57:28;38.15;36.94;39.25;;
67320;Laerm;57665;51.436;5.978;2024-03-25T00:57:39;38.29;37.27;40.12;;
67320;Laerm;57665;51.436;5.978;2024-03-25T00:57:50;38.29;37.37;39.50;;
67320;Laerm;57665;51.436;5.978;2024-03-25T00:58:03;38.16;37.26;39.84;;
67320;Laerm;57665;51.436;5.978;2024-03-25T00:58:14;38.29;37.23;39.42;;
67320;Laerm;57665;51.436;5.978;2024-03-25T00:58:25;38.27;37.27;39.15;;
67320;Laerm;57665;51.436;5.978;2024-03-25T00:58:35;38.15;37.22;39.13;;
67320;Laerm;57665;51.436;5.978;2024-03-25T00:58:45;38.11;36.97;39.34;;
67320;Laerm;57665;51.436;5.978;2024-03-25T00:58:58;38.07;37.03;39.15;;
67320;Laerm;57665;51.436;5.978;2024-03-25T00:59:12;38.10;36.83;39.29;;
67320;Laerm;57665;51.436;5.978;2024-03-25T00:59:22;38.22;37.04;39.16;;
67320;Laerm;57665;51.436;5.978;2024-03-25T00:59:32;37.99;36.98;39.04;;
67320;Laerm;57665;51.436;5.978;2024-03-25T00:59:43;38.05;36.86;38.92;;
67320;Laerm;57665;51.436;5.978;2024-03-25T00:59:56;38.13;36.93;39.21;;
67320;Laerm;57665;51.436;5.978;2024-03-25T01:00:06;38.26;37.23;41.00;;